Colquitt, Georgia
Current Conditions -  °F | °C
As of 11:15 AM on Monday 24 Nov 2014 (Local Time) from KBGE Reporting Station
Scattered Clouds Scattered Clouds  
Wind Chill: 73°   Ceiling: Unl
Heat Index: 73°   Visibility: 7mi
Dew Point: 72°   Wind: 5mph
Humidity: 94%   Direction: 200°SSW
Pressure: 29.88"   Gusts: NA
Location:  31.17°N, 84.73°W
Report Text: KBGE 241615Z AUTO 20004KT 7SM SCT008 SCT013 SCT020 23/22 A2988 RMK AO2 LTG DSNT S
Loading
Personal Weather Stations






























Interactive Weather Map New forecast layout! Learn more

10-Day Weather Forecast

Advertisements
Track Severe Weather on mobile